Gilman, Connecticut
Current Conditions -  °F | °C
As of 1:52 AM on Monday 22 Dec 2014 (Local Time) from KIJD Reporting Station
Overcast Overcast  
Wind Chill: 30°   Ceiling: 4400
Heat Index: 34°   Visibility: 10mi
Dew Point: 29°   Wind: 5mph
Humidity: 82%   Direction: 20°NNE
Pressure: 30.34"   Gusts: NA
Location:  41.56°N, 72.13°W
Report Text: KIJD 220652Z AUTO 02004KT 10SM OVC044 01/M02 A3034 RMK AO2 SLP276 T00111017
Loading
Personal Weather Stations






























Interactive Weather Map New forecast layout! Learn more

10-Day Weather Forecast

Advertisements
Track Severe Weather on mobile